sensor_id;sensor_type;location;lat;lon;timestamp;P1;durP1;ratioP1;P2;durP2;ratioP2
12687;SDS011;6408;59.388;17.798;2022-10-04T00:00:44;3.23;;;1.10;;
12687;SDS011;6408;59.388;17.798;2022-10-04T00:03:17;3.60;;;1.37;;
12687;SDS011;6408;59.388;17.798;2022-10-04T00:05:52;1.67;;;1.10;;
12687;SDS011;6408;59.388;17.798;2022-10-04T00:08:25;1.80;;;1.13;;
12687;SDS011;6408;59.388;17.798;2022-10-04T00:11:00;2.60;;;1.20;;
12687;SDS011;6408;59.388;17.798;2022-10-04T00:13:30;1.27;;;1.10;;
12687;SDS011;6408;59.388;17.798;2022-10-04T00:15:59;1.97;;;1.30;;
12687;SDS011;6408;59.388;17.798;2022-10-04T00:18:30;2.00;;;1.20;;
12687;SDS011;6408;59.388;17.798;2022-10-04T00:21:04;1.67;;;1.00;;
12687;SDS011;6408;59.388;17.798;2022-10-04T00:23:45;2.67;;;1.10;;
12687;SDS011;6408;59.388;17.798;2022-10-04T00:29:28;2.73;;;1.50;;
12687;SDS011;6408;59.388;17.798;2022-10-04T00:32:23;2.03;;;1.10;;
12687;SDS011;6408;59.388;17.798;2022-10-04T00:34:54;2.67;;;1.10;;
12687;SDS011;6408;59.388;17.798;2022-10-04T00:37:23;1.87;;;1.13;;
12687;SDS011;6408;59.388;17.798;2022-10-04T00:40:02;2.40;;;1.23;;
12687;SDS011;6408;59.388;17.798;2022-10-04T00:42:41;1.77;;;1.10;;
12687;SDS011;6408;59.388;17.798;2022-10-04T00:45:18;2.43;;;1.13;;
12687;SDS011;6408;59.388;17.798;2022-10-04T00:48:01;2.87;;;1.30;;
12687;SDS011;6408;59.388;17.798;2022-10-04T00:50:43;1.47;;;1.17;;
12687;SDS011;6408;59.388;17.798;2022-10-04T00:53:17;1.10;;;1.00;;
12687;SDS011;6408;59.388;17.798;2022-10-04T00:55:50;2.80;;;1.00;;
12687;SDS011;6408;59.388;17.798;2022-10-04T00:58:23;1.67;;;1.00;;
12687;SDS011;6408;59.388;17.798;2022-10-04T01:00:54;2.23;;;1.47;;
12687;SDS011;6408;59.388;17.798;2022-10-04T01:03:25;1.67;;;1.00;;
12687;SDS011;6408;59.388;17.798;2022-10-04T01:05:58;2.60;;;1.20;;
12687;SDS011;6408;59.388;17.798;2022-10-04T01:08:29;4.47;;;1.10;;
12687;SDS011;6408;59.388;17.798;2022-10-04T01:11:00;3.10;;;1.00;;
12687;SDS011;6408;59.388;17.798;2022-10-04T01:13:33;1.30;;;0.93;;
12687;SDS011;6408;59.388;17.798;2022-10-04T01:16:09;3.57;;;1.30;;
12687;SDS011;6408;59.388;17.798;2022-10-04T01:18:41;1.50;;;1.07;;
12687;SDS011;6408;59.388;17.798;2022-10-04T01:21:20;4.10;;;1.27;;
12687;SDS011;6408;59.388;17.798;2022-10-04T01:24:14;3.53;;;1.30;;
12687;SDS011;6408;59.388;17.798;2022-10-04T01:26:43;2.60;;;1.27;;
12687;SDS011;6408;59.388;17.798;2022-10-04T01:29:12;1.23;;;0.90;;
12687;SDS011;6408;59.388;17.798;2022-10-04T01:31:42;1.13;;;0.90;;
12687;SDS011;6408;59.388;17.798;2022-10-04T01:34:11;3.27;;;1.07;;
12687;SDS011;6408;59.388;17.798;2022-10-04T01:36:40;4.23;;;1.30;;
12687;SDS011;6408;59.388;17.798;2022-10-04T01:39:12;2.20;;;1.07;;
12687;SDS011;6408;59.388;17.798;2022-10-04T01:41:42;5.03;;;1.20;;
12687;SDS011;6408;59.388;17.798;2022-10-04T01:44:15;1.90;;;1.00;;
12687;SDS011;6408;59.388;17.798;2022-10-04T01:46:48;2.00;;;0.90;;
12687;SDS011;6408;59.388;17.798;2022-10-04T01:49:19;1.47;;;1.00;;
12687;SDS011;6408;59.388;17.798;2022-10-04T01:51:53;1.20;;;0.97;;
12687;SDS011;6408;59.388;17.798;2022-10-04T01:54:31;1.40;;;0.80;;
12687;SDS011;6408;59.388;17.798;2022-10-04T01:57:01;1.17;;;0.93;;
12687;SDS011;6408;59.388;17.798;2022-10-04T01:59:35;2.63;;;1.10;;
12687;SDS011;6408;59.388;17.798;2022-10-04T02:02:08;1.20;;;0.90;;
12687;SDS011;6408;59.388;17.798;2022-10-04T02:04:45;2.47;;;1.13;;
12687;SDS011;6408;59.388;17.798;2022-10-04T02:07:18;1.97;;;0.87;;
12687;SDS011;6408;59.388;17.798;2022-10-04T02:09:48;1.30;;;0.97;;
12687;SDS011;6408;59.388;17.798;2022-10-04T02:12:20;8.10;;;1.40;;
12687;SDS011;6408;59.388;17.798;2022-10-04T02:14:49;2.07;;;1.00;;
12687;SDS011;6408;59.388;17.798;2022-10-04T02:17:19;2.23;;;1.13;;
12687;SDS011;6408;59.388;17.798;2022-10-04T02:19:51;4.37;;;1.10;;
12687;SDS011;6408;59.388;17.798;2022-10-04T02:22:20;3.63;;;1.10;;
12687;SDS011;6408;59.388;17.798;2022-10-04T02:24:51;4.10;;;1.03;;
12687;SDS011;6408;59.388;17.798;2022-10-04T02:27:24;1.93;;;0.90;;
12687;SDS011;6408;59.388;17.798;2022-10-04T02:29:58;3.07;;;1.10;;
12687;SDS011;6408;59.388;17.798;2022-10-04T02:32:28;2.23;;;0.90;;
12687;SDS011;6408;59.388;17.798;2022-10-04T02:35:13;1.93;;;1.00;;
12687;SDS011;6408;59.388;17.798;2022-10-04T02:37:41;2.87;;;1.00;;
12687;SDS011;6408;59.388;17.798;2022-10-04T02:40:11;2.40;;;1.10;;
12687;SDS011;6408;59.388;17.798;2022-10-04T02:42:43;2.70;;;1.20;;
12687;SDS011;6408;59.388;17.798;2022-10-04T02:45:16;2.60;;;1.10;;
12687;SDS011;6408;59.388;17.798;2022-10-04T02:47:50;3.93;;;1.00;;
12687;SDS011;6408;59.388;17.798;2022-10-04T02:50:25;3.63;;;1.17;;
12687;SDS011;6408;59.388;17.798;2022-10-04T02:52:56;3.50;;;1.10;;
12687;SDS011;6408;59.388;17.798;2022-10-04T02:55:28;3.27;;;1.10;;
12687;SDS011;6408;59.388;17.798;2022-10-04T02:57:57;1.53;;;0.70;;
12687;SDS011;6408;59.388;17.798;2022-10-04T03:00:26;1.57;;;0.80;;
12687;SDS011;6408;59.388;17.798;2022-10-04T03:03:07;2.07;;;1.20;;
12687;SDS011;6408;59.388;17.798;2022-10-04T03:05:41;3.80;;;0.83;;
12687;SDS011;6408;59.388;17.798;2022-10-04T03:08:11;1.53;;;1.17;;
12687;SDS011;6408;59.388;17.798;2022-10-04T03:10:41;4.53;;;1.00;;
12687;SDS011;6408;59.388;17.798;2022-10-04T03:13:09;1.63;;;0.87;;
12687;SDS011;6408;59.388;17.798;2022-10-04T03:15:38;3.43;;;0.70;;
12687;SDS011;6408;59.388;17.798;2022-10-04T03:18:06;1.00;;;0.70;;
12687;SDS011;6408;59.388;17.798;2022-10-04T03:20:35;2.13;;;0.90;;
12687;SDS011;6408;59.388;17.798;2022-10-04T03:23:03;1.43;;;0.73;;
12687;SDS011;6408;59.388;17.798;2022-10-04T03:25:35;1.27;;;0.80;;
12687;SDS011;6408;59.388;17.798;2022-10-04T03:28:10;5.40;;;1.07;;
12687;SDS011;6408;59.388;17.798;2022-10-04T03:30:40;4.20;;;1.20;;
12687;SDS011;6408;59.388;17.798;2022-10-04T03:33:10;3.27;;;0.97;;
12687;SDS011;6408;59.388;17.798;2022-10-04T03:35:43;2.67;;;0.97;;
12687;SDS011;6408;59.388;17.798;2022-10-04T03:38:14;1.90;;;0.80;;
12687;SDS011;6408;59.388;17.798;2022-10-04T03:40:45;2.57;;;1.13;;
12687;SDS011;6408;59.388;17.798;2022-10-04T03:43:19;3.40;;;0.90;;
12687;SDS011;6408;59.388;17.798;2022-10-04T03:45:49;1.87;;;1.00;;
12687;SDS011;6408;59.388;17.798;2022-10-04T03:48:23;1.83;;;0.67;;
12687;SDS011;6408;59.388;17.798;2022-10-04T03:50:56;1.97;;;0.90;;
12687;SDS011;6408;59.388;17.798;2022-10-04T03:53:28;1.97;;;1.00;;
12687;SDS011;6408;59.388;17.798;2022-10-04T03:55:59;1.37;;;0.80;;
12687;SDS011;6408;59.388;17.798;2022-10-04T03:58:30;1.20;;;0.70;;
12687;SDS011;6408;59.388;17.798;2022-10-04T04:01:10;2.50;;;0.80;;
12687;SDS011;6408;59.388;17.798;2022-10-04T04:03:47;3.77;;;0.90;;
12687;SDS011;6408;59.388;17.798;2022-10-04T04:06:20;4.80;;;0.90;;
12687;SDS011;6408;59.388;17.798;2022-10-04T04:08:50;3.40;;;1.00;;
12687;SDS011;6408;59.388;17.798;2022-10-04T04:11:21;3.47;;;0.73;;
12687;SDS011;6408;59.388;17.798;2022-10-04T04:13:54;2.43;;;1.10;;
12687;SDS011;6408;59.388;17.798;2022-10-04T04:16:27;1.07;;;0.93;;
12687;SDS011;6408;59.388;17.798;2022-10-04T04:18:56;5.40;;;0.93;;
12687;SDS011;6408;59.388;17.798;2022-10-04T04:21:26;1.70;;;0.60;;
12687;SDS011;6408;59.388;17.798;2022-10-04T04:23:55;3.17;;;1.07;;
12687;SDS011;6408;59.388;17.798;2022-10-04T04:26:27;4.77;;;1.00;;
12687;SDS011;6408;59.388;17.798;2022-10-04T04:29:03;1.23;;;0.70;;
12687;SDS011;6408;59.388;17.798;2022-10-04T04:31:36;2.77;;;1.10;;
12687;SDS011;6408;59.388;17.798;2022-10-04T04:34:15;2.33;;;0.93;;
12687;SDS011;6408;59.388;17.798;2022-10-04T04:36:45;1.30;;;0.70;;
12687;SDS011;6408;59.388;17.798;2022-10-04T04:39:14;3.30;;;0.80;;
12687;SDS011;6408;59.388;17.798;2022-10-04T04:42:01;2.90;;;0.97;;
12687;SDS011;6408;59.388;17.798;2022-10-04T04:44:33;2.00;;;0.70;;
12687;SDS011;6408;59.388;17.798;2022-10-04T04:47:04;2.90;;;0.90;;
12687;SDS011;6408;59.388;17.798;2022-10-04T04:49:35;3.73;;;0.87;;
12687;SDS011;6408;59.388;17.798;2022-10-04T04:52:05;0.97;;;0.70;;
12687;SDS011;6408;59.388;17.798;2022-10-04T04:54:42;1.87;;;0.93;;
12687;SDS011;6408;59.388;17.798;2022-10-04T04:57:13;3.53;;;1.07;;
12687;SDS011;6408;59.388;17.798;2022-10-04T04:59:44;1.63;;;0.87;;
12687;SDS011;6408;59.388;17.798;2022-10-04T05:02:27;1.87;;;0.90;;
12687;SDS011;6408;59.388;17.798;2022-10-04T05:05:16;2.27;;;0.83;;
12687;SDS011;6408;59.388;17.798;2022-10-04T05:07:45;3.50;;;1.30;;
12687;SDS011;6408;59.388;17.798;2022-10-04T05:10:20;4.10;;;1.87;;
12687;SDS011;6408;59.388;17.798;2022-10-04T05:12:54;3.13;;;2.60;;
12687;SDS011;6408;59.388;17.798;2022-10-04T05:15:22;3.43;;;2.40;;
12687;SDS011;6408;59.388;17.798;2022-10-04T05:17:50;2.73;;;2.00;;
12687;SDS011;6408;59.388;17.798;2022-10-04T05:20:17;3.77;;;1.63;;
12687;SDS011;6408;59.388;17.798;2022-10-04T05:22:46;2.87;;;1.70;;
12687;SDS011;6408;59.388;17.798;2022-10-04T05:25:17;2.80;;;1.27;;
12687;SDS011;6408;59.388;17.798;2022-10-04T05:27:50;3.33;;;1.20;;
12687;SDS011;6408;59.388;17.798;2022-10-04T05:30:32;4.50;;;1.10;;
12687;SDS011;6408;59.388;17.798;2022-10-04T05:33:10;3.13;;;1.13;;
12687;SDS011;6408;59.388;17.798;2022-10-04T05:35:46;1.13;;;0.93;;
12687;SDS011;6408;59.388;17.798;2022-10-04T05:38:29;2.47;;;0.87;;
12687;SDS011;6408;59.388;17.798;2022-10-04T05:41:05;2.20;;;0.90;;
12687;SDS011;6408;59.388;17.798;2022-10-04T05:43:35;1.30;;;0.60;;
12687;SDS011;6408;59.388;17.798;2022-10-04T05:48:57;1.23;;;0.90;;
12687;SDS011;6408;59.388;17.798;2022-10-04T05:51:31;2.37;;;0.80;;
12687;SDS011;6408;59.388;17.798;2022-10-04T05:54:03;0.77;;;0.73;;
12687;SDS011;6408;59.388;17.798;2022-10-04T05:56:37;1.97;;;0.90;;
12687;SDS011;6408;59.388;17.798;2022-10-04T05:59:30;2.13;;;0.70;;
12687;SDS011;6408;59.388;17.798;2022-10-04T06:02:12;3.17;;;0.93;;
12687;SDS011;6408;59.388;17.798;2022-10-04T06:04:54;3.30;;;1.03;;
12687;SDS011;6408;59.388;17.798;2022-10-04T06:07:33;2.13;;;0.90;;
12687;SDS011;6408;59.388;17.798;2022-10-04T06:10:21;3.83;;;1.00;;
12687;SDS011;6408;59.388;17.798;2022-10-04T06:12:57;1.93;;;0.70;;
12687;SDS011;6408;59.388;17.798;2022-10-04T06:15:42;2.00;;;0.80;;
12687;SDS011;6408;59.388;17.798;2022-10-04T06:21:33;4.13;;;0.93;;
12687;SDS011;6408;59.388;17.798;2022-10-04T06:24:09;1.07;;;0.70;;
12687;SDS011;6408;59.388;17.798;2022-10-04T06:26:39;4.43;;;1.00;;
12687;SDS011;6408;59.388;17.798;2022-10-04T06:29:10;0.77;;;0.60;;
12687;SDS011;6408;59.388;17.798;2022-10-04T06:37:50;3.20;;;1.20;;
12687;SDS011;6408;59.388;17.798;2022-10-04T06:40:47;3.07;;;1.20;;
12687;SDS011;6408;59.388;17.798;2022-10-04T06:43:40;4.13;;;0.90;;
12687;SDS011;6408;59.388;17.798;2022-10-04T06:46:32;3.13;;;1.20;;
12687;SDS011;6408;59.388;17.798;2022-10-04T06:49:15;2.00;;;1.00;;
12687;SDS011;6408;59.388;17.798;2022-10-04T06:52:08;6.63;;;1.20;;
12687;SDS011;6408;59.388;17.798;2022-10-04T06:58:04;1.87;;;0.80;;
12687;SDS011;6408;59.388;17.798;2022-10-04T07:00:58;1.70;;;1.00;;
12687;SDS011;6408;59.388;17.798;2022-10-04T07:03:32;2.77;;;1.07;;
12687;SDS011;6408;59.388;17.798;2022-10-04T07:06:04;2.70;;;0.90;;
12687;SDS011;6408;59.388;17.798;2022-10-04T07:08:38;1.53;;;0.80;;
12687;SDS011;6408;59.388;17.798;2022-10-04T07:11:13;4.77;;;0.80;;
12687;SDS011;6408;59.388;17.798;2022-10-04T07:13:46;2.17;;;0.80;;
12687;SDS011;6408;59.388;17.798;2022-10-04T07:16:28;3.47;;;0.93;;
12687;SDS011;6408;59.388;17.798;2022-10-04T07:19:06;2.97;;;0.93;;
12687;SDS011;6408;59.388;17.798;2022-10-04T07:21:52;2.67;;;1.20;;
12687;SDS011;6408;59.388;17.798;2022-10-04T07:24:27;2.03;;;0.97;;
12687;SDS011;6408;59.388;17.798;2022-10-04T07:27:06;2.50;;;0.93;;
12687;SDS011;6408;59.388;17.798;2022-10-04T07:29:36;3.10;;;1.00;;
12687;SDS011;6408;59.388;17.798;2022-10-04T07:32:07;4.10;;;1.17;;
12687;SDS011;6408;59.388;17.798;2022-10-04T07:34:41;1.50;;;0.83;;
12687;SDS011;6408;59.388;17.798;2022-10-04T07:37:12;2.00;;;1.07;;
12687;SDS011;6408;59.388;17.798;2022-10-04T07:39:44;5.90;;;0.90;;
12687;SDS011;6408;59.388;17.798;2022-10-04T07:42:20;2.00;;;0.90;;
12687;SDS011;6408;59.388;17.798;2022-10-04T07:44:56;2.17;;;1.00;;
12687;SDS011;6408;59.388;17.798;2022-10-04T07:47:29;3.50;;;0.83;;
12687;SDS011;6408;59.388;17.798;2022-10-04T07:49:57;2.93;;;1.17;;
12687;SDS011;6408;59.388;17.798;2022-10-04T07:52:28;2.10;;;0.87;;
12687;SDS011;6408;59.388;17.798;2022-10-04T07:55:16;2.10;;;0.90;;
12687;SDS011;6408;59.388;17.798;2022-10-04T07:57:53;1.97;;;1.07;;
12687;SDS011;6408;59.388;17.798;2022-10-04T08:00:38;2.33;;;1.10;;
12687;SDS011;6408;59.388;17.798;2022-10-04T08:06:12;4.63;;;1.30;;
12687;SDS011;6408;59.388;17.798;2022-10-04T08:08:53;4.63;;;1.30;;
12687;SDS011;6408;59.388;17.798;2022-10-04T08:11:39;5.37;;;1.03;;
12687;SDS011;6408;59.388;17.798;2022-10-04T08:14:17;5.00;;;1.20;;
12687;SDS011;6408;59.388;17.798;2022-10-04T08:16:55;2.30;;;1.30;;
12687;SDS011;6408;59.388;17.798;2022-10-04T08:19:37;3.00;;;1.25;;
12687;SDS011;6408;59.388;17.798;2022-10-04T08:22:19;2.53;;;1.17;;
12687;SDS011;6408;59.388;17.798;2022-10-04T08:24:57;2.95;;;1.10;;
12687;SDS011;6408;59.388;17.798;2022-10-04T08:27:35;2.83;;;1.02;;
12687;SDS011;6408;59.388;17.798;2022-10-04T08:30:38;2.20;;;1.30;;
12687;SDS011;6408;59.388;17.798;2022-10-04T08:33:17;2.85;;;1.80;;
12687;SDS011;6408;59.388;17.798;2022-10-04T08:35:54;2.67;;;1.27;;
12687;SDS011;6408;59.388;17.798;2022-10-04T08:38:33;2.25;;;1.10;;
12687;SDS011;6408;59.388;17.798;2022-10-04T08:41:22;3.22;;;1.13;;
12687;SDS011;6408;59.388;17.798;2022-10-04T08:44:19;2.65;;;1.15;;
12687;SDS011;6408;59.388;17.798;2022-10-04T08:47:20;2.22;;;0.90;;
12687;SDS011;6408;59.388;17.798;2022-10-04T08:50:23;3.00;;;1.00;;
12687;SDS011;6408;59.388;17.798;2022-10-04T08:56:49;2.85;;;1.10;;
12687;SDS011;6408;59.388;17.798;2022-10-04T09:02:38;3.20;;;0.95;;
12687;SDS011;6408;59.388;17.798;2022-10-04T09:05:30;3.65;;;1.20;;
12687;SDS011;6408;59.388;17.798;2022-10-04T09:08:37;6.93;;;1.20;;
12687;SDS011;6408;59.388;17.798;2022-10-04T09:14:42;2.22;;;1.15;;
12687;SDS011;6408;59.388;17.798;2022-10-04T09:17:29;1.77;;;1.05;;
12687;SDS011;6408;59.388;17.798;2022-10-04T09:20:17;3.17;;;1.10;;
12687;SDS011;6408;59.388;17.798;2022-10-04T09:22:53;2.42;;;1.17;;
12687;SDS011;6408;59.388;17.798;2022-10-04T09:25:33;3.22;;;1.10;;
12687;SDS011;6408;59.388;17.798;2022-10-04T09:28:18;1.45;;;0.90;;
12687;SDS011;6408;59.388;17.798;2022-10-04T09:31:12;1.63;;;1.00;;
12687;SDS011;6408;59.388;17.798;2022-10-04T09:34:05;3.70;;;1.45;;
12687;SDS011;6408;59.388;17.798;2022-10-04T09:36:52;2.75;;;1.00;;
12687;SDS011;6408;59.388;17.798;2022-10-04T09:39:35;2.00;;;1.10;;
12687;SDS011;6408;59.388;17.798;2022-10-04T09:42:30;2.28;;;1.00;;
12687;SDS011;6408;59.388;17.798;2022-10-04T09:53:56;2.42;;;1.00;;
12687;SDS011;6408;59.388;17.798;2022-10-04T09:56:58;3.15;;;1.20;;
12687;SDS011;6408;59.388;17.798;2022-10-04T10:00:00;3.13;;;1.30;;
12687;SDS011;6408;59.388;17.798;2022-10-04T10:05:55;2.20;;;1.02;;
12687;SDS011;6408;59.388;17.798;2022-10-04T10:08:38;1.33;;;0.85;;
12687;SDS011;6408;59.388;17.798;2022-10-04T10:11:22;3.35;;;1.10;;
12687;SDS011;6408;59.388;17.798;2022-10-04T10:17:28;1.92;;;1.20;;
12687;SDS011;6408;59.388;17.798;2022-10-04T10:20:26;1.58;;;0.95;;
12687;SDS011;6408;59.388;17.798;2022-10-04T10:23:19;1.42;;;1.00;;
12687;SDS011;6408;59.388;17.798;2022-10-04T10:26:12;2.45;;;1.15;;
12687;SDS011;6408;59.388;17.798;2022-10-04T10:32:18;1.52;;;0.93;;
12687;SDS011;6408;59.388;17.798;2022-10-04T10:35:32;2.80;;;1.10;;
12687;SDS011;6408;59.388;17.798;2022-10-04T10:41:26;3.30;;;1.20;;
12687;SDS011;6408;59.388;17.798;2022-10-04T10:44:14;1.75;;;1.20;;
12687;SDS011;6408;59.388;17.798;2022-10-04T10:49:54;2.88;;;1.10;;
12687;SDS011;6408;59.388;17.798;2022-10-04T10:52:35;2.95;;;1.20;;
12687;SDS011;6408;59.388;17.798;2022-10-04T10:58:48;3.67;;;1.15;;
12687;SDS011;6408;59.388;17.798;2022-10-04T11:02:07;1.50;;;1.13;;
12687;SDS011;6408;59.388;17.798;2022-10-04T11:05:13;3.28;;;1.20;;
12687;SDS011;6408;59.388;17.798;2022-10-04T11:07:52;2.80;;;1.20;;
12687;SDS011;6408;59.388;17.798;2022-10-04T11:26:22;1.73;;;1.10;;
12687;SDS011;6408;59.388;17.798;2022-10-04T11:29:17;1.95;;;1.30;;
12687;SDS011;6408;59.388;17.798;2022-10-04T11:34:59;1.73;;;0.85;;
12687;SDS011;6408;59.388;17.798;2022-10-04T11:38:01;2.72;;;1.00;;
12687;SDS011;6408;59.388;17.798;2022-10-04T11:43:43;2.53;;;1.00;;
12687;SDS011;6408;59.388;17.798;2022-10-04T11:46:36;1.88;;;1.00;;
12687;SDS011;6408;59.388;17.798;2022-10-04T11:49:14;3.97;;;1.15;;
12687;SDS011;6408;59.388;17.798;2022-10-04T11:55:18;2.70;;;0.93;;
12687;SDS011;6408;59.388;17.798;2022-10-04T11:58:02;2.05;;;0.98;;
12687;SDS011;6408;59.388;17.798;2022-10-04T12:00:43;2.70;;;1.15;;
12687;SDS011;6408;59.388;17.798;2022-10-04T12:03:34;2.38;;;1.10;;
12687;SDS011;6408;59.388;17.798;2022-10-04T12:06:22;1.50;;;0.90;;
12687;SDS011;6408;59.388;17.798;2022-10-04T12:09:04;1.50;;;0.90;;
12687;SDS011;6408;59.388;17.798;2022-10-04T12:11:54;0.80;;;0.70;;
12687;SDS011;6408;59.388;17.798;2022-10-04T12:15:02;2.78;;;1.33;;
12687;SDS011;6408;59.388;17.798;2022-10-04T12:17:48;2.25;;;0.82;;
12687;SDS011;6408;59.388;17.798;2022-10-04T12:23:45;1.65;;;0.95;;
12687;SDS011;6408;59.388;17.798;2022-10-04T12:26:40;2.75;;;1.02;;
12687;SDS011;6408;59.388;17.798;2022-10-04T12:32:25;2.03;;;0.90;;
12687;SDS011;6408;59.388;17.798;2022-10-04T12:35:01;1.52;;;0.75;;
12687;SDS011;6408;59.388;17.798;2022-10-04T12:37:38;1.80;;;0.82;;
12687;SDS011;6408;59.388;17.798;2022-10-04T12:40:20;2.97;;;0.95;;
12687;SDS011;6408;59.388;17.798;2022-10-04T12:42:59;2.60;;;0.90;;
12687;SDS011;6408;59.388;17.798;2022-10-04T12:45:40;1.38;;;0.77;;
12687;SDS011;6408;59.388;17.798;2022-10-04T12:48:21;3.75;;;1.08;;
12687;SDS011;6408;59.388;17.798;2022-10-04T12:51:00;4.95;;;1.00;;
12687;SDS011;6408;59.388;17.798;2022-10-04T12:53:40;3.00;;;0.93;;
12687;SDS011;6408;59.388;17.798;2022-10-04T12:56:17;1.83;;;0.85;;
12687;SDS011;6408;59.388;17.798;2022-10-04T12:59:00;2.40;;;0.80;;
12687;SDS011;6408;59.388;17.798;2022-10-04T13:01:40;1.77;;;0.88;;
12687;SDS011;6408;59.388;17.798;2022-10-04T13:04:26;0.88;;;0.88;;
12687;SDS011;6408;59.388;17.798;2022-10-04T13:09:52;3.60;;;1.17;;
12687;SDS011;6408;59.388;17.798;2022-10-04T13:12:55;2.75;;;1.10;;
12687;SDS011;6408;59.388;17.798;2022-10-04T13:15:43;1.75;;;1.10;;
12687;SDS011;6408;59.388;17.798;2022-10-04T13:18:17;3.28;;;0.95;;
12687;SDS011;6408;59.388;17.798;2022-10-04T13:20:50;4.60;;;0.80;;
12687;SDS011;6408;59.388;17.798;2022-10-04T13:23:46;1.45;;;0.90;;
12687;SDS011;6408;59.388;17.798;2022-10-04T13:26:29;2.17;;;1.00;;
12687;SDS011;6408;59.388;17.798;2022-10-04T13:29:14;1.35;;;0.90;;
12687;SDS011;6408;59.388;17.798;2022-10-04T13:31:49;5.22;;;1.00;;
12687;SDS011;6408;59.388;17.798;2022-10-04T13:34:24;1.67;;;0.68;;
12687;SDS011;6408;59.388;17.798;2022-10-04T13:37:12;2.00;;;0.85;;
12687;SDS011;6408;59.388;17.798;2022-10-04T13:39:56;2.30;;;0.77;;
12687;SDS011;6408;59.388;17.798;2022-10-04T13:42:55;4.32;;;1.08;;
12687;SDS011;6408;59.388;17.798;2022-10-04T13:48:48;2.15;;;0.90;;
12687;SDS011;6408;59.388;17.798;2022-10-04T13:54:36;2.30;;;1.10;;
12687;SDS011;6408;59.388;17.798;2022-10-04T13:57:29;2.00;;;0.80;;
12687;SDS011;6408;59.388;17.798;2022-10-04T14:00:07;1.27;;;0.70;;
12687;SDS011;6408;59.388;17.798;2022-10-04T14:02:47;1.67;;;0.90;;
12687;SDS011;6408;59.388;17.798;2022-10-04T14:08:53;1.63;;;0.85;;
12687;SDS011;6408;59.388;17.798;2022-10-04T14:12:17;2.00;;;0.68;;
12687;SDS011;6408;59.388;17.798;2022-10-04T14:15:27;1.90;;;1.00;;
12687;SDS011;6408;59.388;17.798;2022-10-04T14:21:27;1.60;;;0.90;;
12687;SDS011;6408;59.388;17.798;2022-10-04T14:27:31;2.28;;;0.70;;
12687;SDS011;6408;59.388;17.798;2022-10-04T14:30:16;1.58;;;0.80;;
12687;SDS011;6408;59.388;17.798;2022-10-04T14:33:02;1.13;;;0.70;;
12687;SDS011;6408;59.388;17.798;2022-10-04T14:36:00;1.42;;;0.85;;
12687;SDS011;6408;59.388;17.798;2022-10-04T14:39:06;1.70;;;0.90;;
12687;SDS011;6408;59.388;17.798;2022-10-04T14:42:03;3.03;;;0.90;;
12687;SDS011;6408;59.388;17.798;2022-10-04T14:44:56;1.52;;;1.02;;
12687;SDS011;6408;59.388;17.798;2022-10-04T14:47:59;1.85;;;0.70;;
12687;SDS011;6408;59.388;17.798;2022-10-04T14:51:03;1.95;;;0.80;;
12687;SDS011;6408;59.388;17.798;2022-10-04T14:53:55;1.88;;;0.80;;
12687;SDS011;6408;59.388;17.798;2022-10-04T14:56:34;3.60;;;1.00;;
12687;SDS011;6408;59.388;17.798;2022-10-04T14:59:20;1.00;;;0.88;;
12687;SDS011;6408;59.388;17.798;2022-10-04T15:02:09;1.55;;;1.00;;
12687;SDS011;6408;59.388;17.798;2022-10-04T15:05:02;2.10;;;0.90;;
12687;SDS011;6408;59.388;17.798;2022-10-04T15:07:53;2.63;;;0.93;;
12687;SDS011;6408;59.388;17.798;2022-10-04T15:10:36;1.98;;;1.02;;
12687;SDS011;6408;59.388;17.798;2022-10-04T15:13:17;2.75;;;0.88;;
12687;SDS011;6408;59.388;17.798;2022-10-04T15:15:52;2.63;;;0.95;;
12687;SDS011;6408;59.388;17.798;2022-10-04T15:18:31;1.73;;;0.95;;
12687;SDS011;6408;59.388;17.798;2022-10-04T15:21:10;2.63;;;1.10;;
12687;SDS011;6408;59.388;17.798;2022-10-04T15:24:09;2.97;;;0.80;;
12687;SDS011;6408;59.388;17.798;2022-10-04T15:27:16;6.20;;;1.20;;
12687;SDS011;6408;59.388;17.798;2022-10-04T15:30:19;2.55;;;0.80;;
12687;SDS011;6408;59.388;17.798;2022-10-04T15:33:04;1.65;;;0.70;;
12687;SDS011;6408;59.388;17.798;2022-10-04T15:35:45;1.92;;;0.90;;
12687;SDS011;6408;59.388;17.798;2022-10-04T15:38:36;3.28;;;0.90;;
12687;SDS011;6408;59.388;17.798;2022-10-04T15:41:20;2.60;;;1.10;;
12687;SDS011;6408;59.388;17.798;2022-10-04T15:44:13;4.13;;;0.90;;
12687;SDS011;6408;59.388;17.798;2022-10-04T15:47:06;3.78;;;0.90;;
12687;SDS011;6408;59.388;17.798;2022-10-04T15:49:46;3.72;;;0.98;;
12687;SDS011;6408;59.388;17.798;2022-10-04T15:55:20;3.08;;;1.10;;
12687;SDS011;6408;59.388;17.798;2022-10-04T16:04:04;1.40;;;0.90;;
12687;SDS011;6408;59.388;17.798;2022-10-04T16:06:46;2.07;;;0.67;;
12687;SDS011;6408;59.388;17.798;2022-10-04T16:09:18;1.33;;;0.82;;
12687;SDS011;6408;59.388;17.798;2022-10-04T16:11:56;2.35;;;0.93;;
12687;SDS011;6408;59.388;17.798;2022-10-04T16:14:34;1.23;;;1.00;;
12687;SDS011;6408;59.388;17.798;2022-10-04T16:17:27;2.45;;;1.10;;
12687;SDS011;6408;59.388;17.798;2022-10-04T16:20:19;1.67;;;0.93;;
12687;SDS011;6408;59.388;17.798;2022-10-04T16:23:26;4.82;;;1.45;;
12687;SDS011;6408;59.388;17.798;2022-10-04T16:25:59;1.75;;;0.90;;
12687;SDS011;6408;59.388;17.798;2022-10-04T16:28:36;2.97;;;0.97;;
12687;SDS011;6408;59.388;17.798;2022-10-04T16:31:16;2.75;;;1.20;;
12687;SDS011;6408;59.388;17.798;2022-10-04T16:34:06;2.40;;;1.37;;
12687;SDS011;6408;59.388;17.798;2022-10-04T16:36:44;5.60;;;1.37;;
12687;SDS011;6408;59.388;17.798;2022-10-04T16:39:29;3.65;;;1.40;;
12687;SDS011;6408;59.388;17.798;2022-10-04T16:42:21;3.90;;;1.25;;
12687;SDS011;6408;59.388;17.798;2022-10-04T16:44:53;4.38;;;1.42;;
12687;SDS011;6408;59.388;17.798;2022-10-04T16:47:26;2.70;;;1.23;;
12687;SDS011;6408;59.388;17.798;2022-10-04T16:49:59;2.77;;;1.20;;
12687;SDS011;6408;59.388;17.798;2022-10-04T16:52:35;2.63;;;1.30;;
12687;SDS011;6408;59.388;17.798;2022-10-04T16:55:20;4.00;;;1.17;;
12687;SDS011;6408;59.388;17.798;2022-10-04T17:04:32;3.53;;;1.13;;
12687;SDS011;6408;59.388;17.798;2022-10-04T17:07:29;4.70;;;1.50;;
12687;SDS011;6408;59.388;17.798;2022-10-04T17:10:15;4.30;;;2.17;;
12687;SDS011;6408;59.388;17.798;2022-10-04T17:12:47;2.77;;;2.10;;
12687;SDS011;6408;59.388;17.798;2022-10-04T17:15:23;2.40;;;1.33;;
12687;SDS011;6408;59.388;17.798;2022-10-04T17:18:14;2.73;;;1.20;;
12687;SDS011;6408;59.388;17.798;2022-10-04T17:20:52;3.40;;;1.50;;
12687;SDS011;6408;59.388;17.798;2022-10-04T17:23:32;4.77;;;1.30;;
12687;SDS011;6408;59.388;17.798;2022-10-04T17:26:27;2.87;;;1.13;;
12687;SDS011;6408;59.388;17.798;2022-10-04T17:29:13;3.50;;;2.00;;
12687;SDS011;6408;59.388;17.798;2022-10-04T17:31:55;5.97;;;1.90;;
12687;SDS011;6408;59.388;17.798;2022-10-04T17:34:28;2.63;;;1.30;;
12687;SDS011;6408;59.388;17.798;2022-10-04T17:37:10;5.67;;;1.47;;
12687;SDS011;6408;59.388;17.798;2022-10-04T17:39:46;3.30;;;1.67;;
12687;SDS011;6408;59.388;17.798;2022-10-04T17:42:20;4.03;;;1.20;;
12687;SDS011;6408;59.388;17.798;2022-10-04T17:45:00;3.67;;;1.30;;
12687;SDS011;6408;59.388;17.798;2022-10-04T17:47:46;2.30;;;1.23;;
12687;SDS011;6408;59.388;17.798;2022-10-04T17:50:43;5.00;;;1.40;;
12687;SDS011;6408;59.388;17.798;2022-10-04T17:53:35;2.50;;;1.27;;
12687;SDS011;6408;59.388;17.798;2022-10-04T17:56:28;5.23;;;1.50;;
12687;SDS011;6408;59.388;17.798;2022-10-04T17:59:04;3.70;;;1.70;;
12687;SDS011;6408;59.388;17.798;2022-10-04T18:01:37;3.90;;;1.47;;
12687;SDS011;6408;59.388;17.798;2022-10-04T18:04:13;4.80;;;1.73;;
12687;SDS011;6408;59.388;17.798;2022-10-04T18:06:48;3.97;;;1.73;;
12687;SDS011;6408;59.388;17.798;2022-10-04T18:09:21;2.57;;;1.00;;
12687;SDS011;6408;59.388;17.798;2022-10-04T18:11:55;1.97;;;0.90;;